Etusivu
METAR-TAF:

METAR-TAF

Lentoasemat :

Brenner Field

Falls City, Nebraska, Yhdysvallat

Leveyspiiri: 40-04-44N, Pituuspiiri: 095-35-31W, korkeus merenpinnasta: 300 m

Tämänhetkinen sää

Tämä raportti tehtiin 57 minuuttia sitten, kello 19.53 UTC
Tuuli 16 kn pohjoisesta puuskistuen 23 kn:hen
Lämpötila 3°C
Kosteus 32%
Ilmanpaine 1027 hPa
Näkyvyys: 16.1 km

METAR: KFNB 261953Z AUTO 36016G23KT 10SM 03/M12 A3032 RMK AO2 PK WND 35026/1923 SLP274 T00331117

Aika: 14:50 (20:50 UTC)


TAF: puuttuu

Säähavainnot ja -ennusteet yli 4000 lentoasemalta (METAR- ja TAF-raportit).

Käytössä olevat sääasemat on merkitty karttaan keltaisilla ja punaisilla pisteillä.

Aseta hiiri pisteen päälle nähdäksesi sääaseman nimen.

Klikkaa sitten nähdäksesi säähavainnot ja -ennusteet.

Kartan vaihtaminen: klikkaa mustalla rastilla varustettuja vihreitä pisteitä, niin voit zoomata sisään; viivalla varustettua vihreää pistettä, niin voit zoomata ulos tai vihreitä nuolia, niin pääset viereisille kartoille.


METAR-TAF: